sensor_id;sensor_type;location;lat;lon;timestamp;pressure;altitude;pressure_sealevel;temperature;humidity
18900;BME280;9582;52.018;6.306;2023-03-19T00:01:20;101303.09;;;10.56;100.00
18900;BME280;9582;52.018;6.306;2023-03-19T00:03:47;101306.56;;;10.56;100.00
18900;BME280;9582;52.018;6.306;2023-03-19T00:06:14;101303.09;;;10.56;100.00
18900;BME280;9582;52.018;6.306;2023-03-19T00:08:40;101297.06;;;10.54;100.00
18900;BME280;9582;52.018;6.306;2023-03-19T00:11:07;101301.41;;;10.55;100.00
18900;BME280;9582;52.018;6.306;2023-03-19T00:13:35;101300.41;;;10.57;100.00
18900;BME280;9582;52.018;6.306;2023-03-19T00:16:03;101302.28;;;10.54;100.00
18900;BME280;9582;52.018;6.306;2023-03-19T00:18:30;101297.13;;;10.52;100.00
18900;BME280;9582;52.018;6.306;2023-03-19T00:20:57;101297.19;;;10.51;100.00
18900;BME280;9582;52.018;6.306;2023-03-19T00:23:23;101296.31;;;10.50;100.00
18900;BME280;9582;52.018;6.306;2023-03-19T00:25:50;101295.50;;;10.50;100.00
18900;BME280;9582;52.018;6.306;2023-03-19T00:28:16;101293.78;;;10.49;100.00
18900;BME280;9582;52.018;6.306;2023-03-19T00:30:43;101291.09;;;10.50;100.00
18900;BME280;9582;52.018;6.306;2023-03-19T00:33:11;101294.56;;;10.51;100.00
18900;BME280;9582;52.018;6.306;2023-03-19T00:35:38;101285.03;;;10.50;100.00
18900;BME280;9582;52.018;6.306;2023-03-19T00:38:05;101300.81;;;10.47;100.00
18900;BME280;9582;52.018;6.306;2023-03-19T00:40:32;101294.88;;;10.41;100.00
18900;BME280;9582;52.018;6.306;2023-03-19T00:42:58;101309.00;;;10.37;100.00
18900;BME280;9582;52.018;6.306;2023-03-19T00:45:26;101309.22;;;10.31;100.00
18900;BME280;9582;52.018;6.306;2023-03-19T00:47:54;101316.25;;;10.29;100.00
18900;BME280;9582;52.018;6.306;2023-03-19T00:50:22;101320.66;;;10.27;100.00
18900;BME280;9582;52.018;6.306;2023-03-19T00:52:49;101320.81;;;10.24;100.00
18900;BME280;9582;52.018;6.306;2023-03-19T00:55:16;101313.06;;;10.21;100.00
18900;BME280;9582;52.018;6.306;2023-03-19T00:57:43;101311.44;;;10.19;100.00
18900;BME280;9582;52.018;6.306;2023-03-19T01:00:11;101311.47;;;10.17;100.00
18900;BME280;9582;52.018;6.306;2023-03-19T01:02:38;101315.94;;;10.14;100.00
18900;BME280;9582;52.018;6.306;2023-03-19T01:05:05;101320.41;;;10.10;100.00
18900;BME280;9582;52.018;6.306;2023-03-19T01:07:33;101317.91;;;10.07;100.00
18900;BME280;9582;52.018;6.306;2023-03-19T01:10:00;101322.38;;;10.04;100.00
18900;BME280;9582;52.018;6.306;2023-03-19T01:12:27;101323.31;;;10.01;100.00
18900;BME280;9582;52.018;6.306;2023-03-19T01:14:54;101318.13;;;10.00;100.00
18900;BME280;9582;52.018;6.306;2023-03-19T01:17:20;101325.13;;;9.99;100.00
18900;BME280;9582;52.018;6.306;2023-03-19T01:19:47;101331.28;;;9.98;100.00
18900;BME280;9582;52.018;6.306;2023-03-19T01:22:14;101337.50;;;9.94;100.00
18900;BME280;9582;52.018;6.306;2023-03-19T01:24:47;101342.78;;;9.93;100.00
18900;BME280;9582;52.018;6.306;2023-03-19T01:27:14;101343.75;;;9.90;100.00
18900;BME280;9582;52.018;6.306;2023-03-19T01:29:40;101345.53;;;9.88;100.00
18900;BME280;9582;52.018;6.306;2023-03-19T01:32:12;101337.78;;;9.85;100.00
18900;BME280;9582;52.018;6.306;2023-03-19T01:34:57;101347.34;;;9.86;100.00
18900;BME280;9582;52.018;6.306;2023-03-19T01:37:24;101340.47;;;9.83;100.00
18900;BME280;9582;52.018;6.306;2023-03-19T01:39:52;101344.03;;;9.81;100.00
18900;BME280;9582;52.018;6.306;2023-03-19T01:42:19;101336.47;;;9.73;100.00
18900;BME280;9582;52.018;6.306;2023-03-19T01:45:29;101346.16;;;9.70;100.00
18900;BME280;9582;52.018;6.306;2023-03-19T01:48:27;101341.91;;;9.66;100.00
18900;BME280;9582;52.018;6.306;2023-03-19T01:51:05;101346.44;;;9.61;100.00
18900;BME280;9582;52.018;6.306;2023-03-19T01:53:48;101344.81;;;9.57;100.00
18900;BME280;9582;52.018;6.306;2023-03-19T01:56:27;101348.56;;;9.50;100.00
18900;BME280;9582;52.018;6.306;2023-03-19T01:59:06;101337.53;;;9.40;100.00
18900;BME280;9582;52.018;6.306;2023-03-19T02:01:49;101342.03;;;9.35;100.00
18900;BME280;9582;52.018;6.306;2023-03-19T02:04:19;101345.53;;;9.36;100.00
18900;BME280;9582;52.018;6.306;2023-03-19T02:06:45;101334.97;;;9.39;100.00
18900;BME280;9582;52.018;6.306;2023-03-19T02:09:13;101337.53;;;9.40;100.00
18900;BME280;9582;52.018;6.306;2023-03-19T02:11:41;101344.53;;;9.40;100.00
18900;BME280;9582;52.018;6.306;2023-03-19T02:14:08;101346.31;;;9.38;100.00
18900;BME280;9582;52.018;6.306;2023-03-19T02:16:37;101355.09;;;9.35;100.00
18900;BME280;9582;52.018;6.306;2023-03-19T02:19:04;101354.31;;;9.33;100.00
18900;BME280;9582;52.018;6.306;2023-03-19T02:21:32;101355.25;;;9.31;100.00
18900;BME280;9582;52.018;6.306;2023-03-19T02:24:02;101363.09;;;9.31;100.00
18900;BME280;9582;52.018;6.306;2023-03-19T02:26:58;101362.22;;;9.30;100.00
18900;BME280;9582;52.018;6.306;2023-03-19T02:29:26;101370.00;;;9.32;100.00
18900;BME280;9582;52.018;6.306;2023-03-19T02:31:55;101377.81;;;9.32;100.00
18900;BME280;9582;52.018;6.306;2023-03-19T02:34:33;101381.28;;;9.32;100.00
18900;BME280;9582;52.018;6.306;2023-03-19T02:37:03;101399.56;;;9.32;100.00
18900;BME280;9582;52.018;6.306;2023-03-19T02:39:33;101419.41;;;9.38;100.00
18900;BME280;9582;52.018;6.306;2023-03-19T02:42:04;101429.66;;;9.44;100.00
18900;BME280;9582;52.018;6.306;2023-03-19T02:44:31;101445.19;;;9.48;100.00
18900;BME280;9582;52.018;6.306;2023-03-19T02:46:57;101451.16;;;9.52;100.00
18900;BME280;9582;52.018;6.306;2023-03-19T02:49:24;101478.91;;;9.56;100.00
18900;BME280;9582;52.018;6.306;2023-03-19T02:51:51;101494.47;;;9.59;100.00
18900;BME280;9582;52.018;6.306;2023-03-19T02:54:18;101497.78;;;9.64;100.00
18900;BME280;9582;52.018;6.306;2023-03-19T02:56:45;101516.88;;;9.66;100.00
18900;BME280;9582;52.018;6.306;2023-03-19T02:59:14;101522.94;;;9.68;100.00
18900;BME280;9582;52.018;6.306;2023-03-19T03:01:41;101541.94;;;9.71;100.00
18900;BME280;9582;52.018;6.306;2023-03-19T03:04:07;101539.31;;;9.73;100.00
18900;BME280;9582;52.018;6.306;2023-03-19T03:06:34;101545.31;;;9.76;100.00
18900;BME280;9582;52.018;6.306;2023-03-19T03:09:01;101559.19;;;9.77;100.00
18900;BME280;9582;52.018;6.306;2023-03-19T03:11:27;101564.38;;;9.78;100.00
18900;BME280;9582;52.018;6.306;2023-03-19T03:13:54;101573.88;;;9.81;100.00
18900;BME280;9582;52.018;6.306;2023-03-19T03:16:24;101575.53;;;9.83;100.00
18900;BME280;9582;52.018;6.306;2023-03-19T03:18:50;101574.66;;;9.84;100.00
18900;BME280;9582;52.018;6.306;2023-03-19T03:21:18;101584.25;;;9.84;100.00
18900;BME280;9582;52.018;6.306;2023-03-19T03:23:45;101591.13;;;9.86;100.00
18900;BME280;9582;52.018;6.306;2023-03-19T03:26:12;101587.66;;;9.86;100.00
18900;BME280;9582;52.018;6.306;2023-03-19T03:28:39;101591.16;;;9.85;100.00
18900;BME280;9582;52.018;6.306;2023-03-19T03:31:05;101588.59;;;9.83;100.00
18900;BME280;9582;52.018;6.306;2023-03-19T03:33:34;101596.38;;;9.85;100.00
18900;BME280;9582;52.018;6.306;2023-03-19T03:36:01;101602.53;;;9.84;100.00
18900;BME280;9582;52.018;6.306;2023-03-19T03:38:27;101603.38;;;9.84;100.00
18900;BME280;9582;52.018;6.306;2023-03-19T03:40:54;101611.22;;;9.84;100.00
18900;BME280;9582;52.018;6.306;2023-03-19T03:43:24;101613.84;;;9.84;100.00
18900;BME280;9582;52.018;6.306;2023-03-19T03:45:51;101614.72;;;9.83;100.00
18900;BME280;9582;52.018;6.306;2023-03-19T03:48:18;101617.41;;;9.82;100.00
18900;BME280;9582;52.018;6.306;2023-03-19T03:50:47;101624.31;;;9.83;100.00
18900;BME280;9582;52.018;6.306;2023-03-19T03:53:17;101628.69;;;9.82;100.00
18900;BME280;9582;52.018;6.306;2023-03-19T03:55:43;101624.31;;;9.83;100.00
18900;BME280;9582;52.018;6.306;2023-03-19T03:58:10;101626.97;;;9.81;100.00
18900;BME280;9582;52.018;6.306;2023-03-19T04:00:38;101658.31;;;9.81;100.00
18900;BME280;9582;52.018;6.306;2023-03-19T04:03:04;101654.06;;;9.79;100.00
18900;BME280;9582;52.018;6.306;2023-03-19T04:05:31;101655.75;;;9.80;100.00
18900;BME280;9582;52.018;6.306;2023-03-19T04:07:59;101663.66;;;9.77;100.00
18900;BME280;9582;52.018;6.306;2023-03-19T04:10:26;101661.09;;;9.75;100.00
18900;BME280;9582;52.018;6.306;2023-03-19T04:12:52;101664.66;;;9.73;100.00
18900;BME280;9582;52.018;6.306;2023-03-19T04:15:18;101667.34;;;9.70;100.00
18900;BME280;9582;52.018;6.306;2023-03-19T04:17:47;101687.44;;;9.68;100.00
18900;BME280;9582;52.018;6.306;2023-03-19T04:20:16;101688.34;;;9.67;100.00
18900;BME280;9582;52.018;6.306;2023-03-19T04:22:43;101709.25;;;9.65;100.00
18900;BME280;9582;52.018;6.306;2023-03-19T04:25:12;101714.53;;;9.64;100.00
18900;BME280;9582;52.018;6.306;2023-03-19T04:27:38;101718.03;;;9.63;100.00
18900;BME280;9582;52.018;6.306;2023-03-19T04:30:07;101728.53;;;9.61;100.00
18900;BME280;9582;52.018;6.306;2023-03-19T04:32:34;101728.53;;;9.60;100.00
18900;BME280;9582;52.018;6.306;2023-03-19T04:35:01;101735.56;;;9.58;100.00
18900;BME280;9582;52.018;6.306;2023-03-19T04:37:28;101766.09;;;9.56;100.00
18900;BME280;9582;52.018;6.306;2023-03-19T04:39:55;101778.34;;;9.54;100.00
18900;BME280;9582;52.018;6.306;2023-03-19T04:42:23;101780.97;;;9.52;100.00
18900;BME280;9582;52.018;6.306;2023-03-19T04:45:05;101794.06;;;9.51;100.00
18900;BME280;9582;52.018;6.306;2023-03-19T04:47:33;101818.47;;;9.50;100.00
18900;BME280;9582;52.018;6.306;2023-03-19T04:50:00;101835.94;;;9.48;100.00
18900;BME280;9582;52.018;6.306;2023-03-19T04:52:29;101845.53;;;9.46;100.00
18900;BME280;9582;52.018;6.306;2023-03-19T04:54:55;101865.59;;;9.44;100.00
18900;BME280;9582;52.018;6.306;2023-03-19T04:57:23;101903.94;;;9.42;100.00
18900;BME280;9582;52.018;6.306;2023-03-19T04:59:52;101921.41;;;9.40;100.00
18900;BME280;9582;52.018;6.306;2023-03-19T05:02:20;102056.34;;;9.36;100.00
18900;BME280;9582;52.018;6.306;2023-03-19T05:04:48;102085.06;;;9.35;100.00
18900;BME280;9582;52.018;6.306;2023-03-19T05:07:15;102137.31;;;9.32;100.00
18900;BME280;9582;52.018;6.306;2023-03-19T05:09:42;102161.72;;;9.31;100.00
18900;BME280;9582;52.018;6.306;2023-03-19T05:12:11;102199.19;;;9.26;100.00
18900;BME280;9582;52.018;6.306;2023-03-19T05:14:44;102225.34;;;9.23;100.00
18900;BME280;9582;52.018;6.306;2023-03-19T05:17:24;102265.47;;;9.19;100.00
18900;BME280;9582;52.018;6.306;2023-03-19T05:20:01;102315.09;;;9.16;100.00
18900;BME280;9582;52.018;6.306;2023-03-19T05:22:30;102354.25;;;9.15;100.00
18900;BME280;9582;52.018;6.306;2023-03-19T05:24:57;102368.19;;;9.14;100.00
18900;BME280;9582;52.018;6.306;2023-03-19T05:27:24;102388.22;;;9.12;100.00
18900;BME280;9582;52.018;6.306;2023-03-19T05:30:01;102431.69;;;9.13;100.00
18900;BME280;9582;52.018;6.306;2023-03-19T05:32:53;102469.09;;;9.12;100.00
18900;BME280;9582;52.018;6.306;2023-03-19T05:35:47;102484.75;;;9.13;100.00
18900;BME280;9582;52.018;6.306;2023-03-19T05:38:22;102505.59;;;9.15;100.00
18900;BME280;9582;52.018;6.306;2023-03-19T05:41:02;102516.00;;;9.18;100.00
18900;BME280;9582;52.018;6.306;2023-03-19T05:43:36;102518.66;;;9.16;100.00
18900;BME280;9582;52.018;6.306;2023-03-19T05:46:07;102535.22;;;9.14;100.00
18900;BME280;9582;52.018;6.306;2023-03-19T05:48:33;102544.81;;;9.10;100.00
18900;BME280;9582;52.018;6.306;2023-03-19T05:51:02;102548.31;;;9.06;100.00
18900;BME280;9582;52.018;6.306;2023-03-19T05:53:33;102547.56;;;9.00;100.00
18900;BME280;9582;52.018;6.306;2023-03-19T05:56:22;102555.44;;;8.92;100.00
18900;BME280;9582;52.018;6.306;2023-03-19T05:59:00;102578.97;;;8.88;100.00
18900;BME280;9582;52.018;6.306;2023-03-19T06:01:35;102584.25;;;8.83;100.00
18900;BME280;9582;52.018;6.306;2023-03-19T06:04:02;102595.59;;;8.78;100.00
18900;BME280;9582;52.018;6.306;2023-03-19T06:06:28;102605.19;;;8.73;100.00
18900;BME280;9582;52.018;6.306;2023-03-19T06:08:55;102616.53;;;8.67;100.00
18900;BME280;9582;52.018;6.306;2023-03-19T06:11:28;102625.25;;;8.64;100.00
18900;BME280;9582;52.018;6.306;2023-03-19T06:14:13;102634.81;;;8.64;100.00
18900;BME280;9582;52.018;6.306;2023-03-19T06:16:46;102645.28;;;8.62;100.00
18900;BME280;9582;52.018;6.306;2023-03-19T06:19:13;102656.59;;;8.63;100.00
18900;BME280;9582;52.018;6.306;2023-03-19T06:21:39;102660.03;;;8.65;100.00
18900;BME280;9582;52.018;6.306;2023-03-19T06:24:07;102667.81;;;8.71;100.00
18900;BME280;9582;52.018;6.306;2023-03-19T06:26:34;102683.41;;;8.79;100.00
18900;BME280;9582;52.018;6.306;2023-03-19T06:29:07;102710.34;;;8.82;100.00
18900;BME280;9582;52.018;6.306;2023-03-19T06:31:34;102750.31;;;8.86;100.00
18900;BME280;9582;52.018;6.306;2023-03-19T06:34:08;102887.69;;;8.88;100.00
18900;BME280;9582;52.018;6.306;2023-03-19T06:36:39;102914.66;;;8.92;100.00
18900;BME280;9582;52.018;6.306;2023-03-19T06:39:08;102941.59;;;8.94;100.00
18900;BME280;9582;52.018;6.306;2023-03-19T06:41:35;102969.41;;;8.98;100.00
18900;BME280;9582;52.018;6.306;2023-03-19T06:44:20;103473.97;;;9.04;100.00
18900;BME280;9582;52.018;6.306;2023-03-19T06:46:47;104228.53;;;9.15;100.00
18900;BME280;9582;52.018;6.306;2023-03-19T06:49:15;104175.56;;;9.23;100.00
18900;BME280;9582;52.018;6.306;2023-03-19T06:51:41;104175.66;;;9.29;100.00
18900;BME280;9582;52.018;6.306;2023-03-19T06:54:08;104175.75;;;9.34;100.00
18900;BME280;9582;52.018;6.306;2023-03-19T06:56:34;104171.44;;;9.39;100.00
18900;BME280;9582;52.018;6.306;2023-03-19T06:59:01;104182.84;;;9.46;100.00
18900;BME280;9582;52.018;6.306;2023-03-19T07:01:27;104183.81;;;9.52;100.00
18900;BME280;9582;52.018;6.306;2023-03-19T07:03:54;104181.28;;;9.60;100.00
18900;BME280;9582;52.018;6.306;2023-03-19T07:06:22;104188.38;;;9.68;100.00
18900;BME280;9582;52.018;6.306;2023-03-19T07:08:49;104193.69;;;9.74;100.00
18900;BME280;9582;52.018;6.306;2023-03-19T07:11:15;104200.72;;;9.80;100.00
18900;BME280;9582;52.018;6.306;2023-03-19T07:13:42;104203.44;;;9.89;100.00
18900;BME280;9582;52.018;6.306;2023-03-19T07:16:08;104198.25;;;9.94;100.00
18900;BME280;9582;52.018;6.306;2023-03-19T07:18:35;104201.78;;;9.97;100.00
18900;BME280;9582;52.018;6.306;2023-03-19T07:21:02;104203.63;;;10.04;100.00
18900;BME280;9582;52.018;6.306;2023-03-19T07:23:30;104204.66;;;10.15;100.00
18900;BME280;9582;52.018;6.306;2023-03-19T07:25:56;104210.00;;;10.24;100.00
18900;BME280;9582;52.018;6.306;2023-03-19T07:28:23;104237.19;;;10.38;100.00
18900;BME280;9582;52.018;6.306;2023-03-19T07:30:50;104259.47;;;10.89;100.00
18900;BME280;9582;52.018;6.306;2023-03-19T07:33:17;104249.22;;;11.16;100.00
18900;BME280;9582;52.018;6.306;2023-03-19T07:35:44;104213.38;;;11.12;100.00
18900;BME280;9582;52.018;6.306;2023-03-19T07:38:10;104183.69;;;11.13;100.00
18900;BME280;9582;52.018;6.306;2023-03-19T07:40:39;104165.41;;;11.22;100.00
18900;BME280;9582;52.018;6.306;2023-03-19T07:43:06;104129.59;;;11.17;100.00
18900;BME280;9582;52.018;6.306;2023-03-19T07:45:32;104099.88;;;11.13;100.00
18900;BME280;9582;52.018;6.306;2023-03-19T07:47:59;104049.16;;;10.99;100.00
18900;BME280;9582;52.018;6.306;2023-03-19T07:50:27;104044.88;;;11.13;100.00
18900;BME280;9582;52.018;6.306;2023-03-19T07:52:54;104000.34;;;11.12;100.00
18900;BME280;9582;52.018;6.306;2023-03-19T07:55:21;103977.66;;;11.09;100.00
18900;BME280;9582;52.018;6.306;2023-03-19T07:57:49;103934.81;;;10.98;100.00
18900;BME280;9582;52.018;6.306;2023-03-19T08:00:16;103913.88;;;10.96;100.00
18900;BME280;9582;52.018;6.306;2023-03-19T08:02:43;103871.06;;;10.84;100.00
18900;BME280;9582;52.018;6.306;2023-03-19T08:05:10;103849.25;;;10.80;100.00
18900;BME280;9582;52.018;6.306;2023-03-19T08:07:37;103830.03;;;10.78;100.00
18900;BME280;9582;52.018;6.306;2023-03-19T08:10:04;103796.00;;;10.80;100.00
18900;BME280;9582;52.018;6.306;2023-03-19T08:12:31;103781.19;;;10.94;100.00
18900;BME280;9582;52.018;6.306;2023-03-19T08:15:00;103767.22;;;11.02;100.00
18900;BME280;9582;52.018;6.306;2023-03-19T08:17:26;103748.88;;;10.98;100.00
18900;BME280;9582;52.018;6.306;2023-03-19T08:19:53;103710.47;;;10.92;100.00
18900;BME280;9582;52.018;6.306;2023-03-19T08:22:19;103699.13;;;10.98;100.00
18900;BME280;9582;52.018;6.306;2023-03-19T08:24:46;103684.31;;;11.05;100.00
18900;BME280;9582;52.018;6.306;2023-03-19T08:27:12;103656.34;;;11.07;100.00
18900;BME280;9582;52.018;6.306;2023-03-19T08:29:39;103630.19;;;11.02;100.00
18900;BME280;9582;52.018;6.306;2023-03-19T08:32:08;103611.00;;;11.06;100.00
18900;BME280;9582;52.018;6.306;2023-03-19T08:34:34;103600.47;;;11.14;100.00
18900;BME280;9582;52.018;6.306;2023-03-19T08:37:01;103576.00;;;11.21;100.00
18900;BME280;9582;52.018;6.306;2023-03-19T08:39:27;103560.28;;;11.25;100.00
18900;BME280;9582;52.018;6.306;2023-03-19T08:41:54;103542.78;;;11.32;100.00
18900;BME280;9582;52.018;6.306;2023-03-19T08:44:20;103528.75;;;11.45;100.00
18900;BME280;9582;52.018;6.306;2023-03-19T08:46:47;103505.97;;;11.56;100.00
18900;BME280;9582;52.018;6.306;2023-03-19T08:49:15;103499.78;;;11.69;100.00
18900;BME280;9582;52.018;6.306;2023-03-19T08:51:42;103492.69;;;11.86;100.00
18900;BME280;9582;52.018;6.306;2023-03-19T08:54:09;103481.22;;;11.98;100.00
18900;BME280;9582;52.018;6.306;2023-03-19T08:56:38;103461.97;;;12.00;100.00
18900;BME280;9582;52.018;6.306;2023-03-19T08:59:04;103437.47;;;12.04;100.00
18900;BME280;9582;52.018;6.306;2023-03-19T09:01:31;103421.63;;;12.15;100.00
18900;BME280;9582;52.018;6.306;2023-03-19T09:03:57;103402.31;;;12.21;100.00
18900;BME280;9582;52.018;6.306;2023-03-19T09:06:25;103383.88;;;12.28;100.00
18900;BME280;9582;52.018;6.306;2023-03-19T09:08:51;103369.81;;;12.35;100.00
18900;BME280;9582;52.018;6.306;2023-03-19T09:11:18;103348.75;;;12.41;100.00
18900;BME280;9582;52.018;6.306;2023-03-19T09:13:45;103348.63;;;12.50;100.00
18900;BME280;9582;52.018;6.306;2023-03-19T09:16:11;103330.94;;;12.66;100.00
18900;BME280;9582;52.018;6.306;2023-03-19T09:18:38;103322.81;;;12.84;100.00
18900;BME280;9582;52.018;6.306;2023-03-19T09:21:04;103317.34;;;12.96;100.00
18900;BME280;9582;52.018;6.306;2023-03-19T09:23:32;103287.72;;;12.90;100.00
18900;BME280;9582;52.018;6.306;2023-03-19T09:25:59;103258.88;;;12.87;100.00
18900;BME280;9582;52.018;6.306;2023-03-19T09:28:25;103214.63;;;12.59;100.00
18900;BME280;9582;52.018;6.306;2023-03-19T09:30:52;103200.66;;;12.57;100.00
18900;BME280;9582;52.018;6.306;2023-03-19T09:33:19;103187.47;;;12.63;100.00
18900;BME280;9582;52.018;6.306;2023-03-19T09:35:50;103175.13;;;12.70;100.00
18900;BME280;9582;52.018;6.306;2023-03-19T09:38:17;103165.25;;;12.84;100.00
18900;BME280;9582;52.018;6.306;2023-03-19T09:40:47;103142.44;;;12.86;100.00
18900;BME280;9582;52.018;6.306;2023-03-19T09:43:43;103117.13;;;12.84;100.00
18900;BME280;9582;52.018;6.306;2023-03-19T09:46:18;103107.25;;;12.96;100.00
18900;BME280;9582;52.018;6.306;2023-03-19T09:48:49;103101.69;;;13.14;100.00
18900;BME280;9582;52.018;6.306;2023-03-19T09:51:22;103098.84;;;13.25;100.00
18900;BME280;9582;52.018;6.306;2023-03-19T09:53:55;103078.69;;;13.25;100.00
18900;BME280;9582;52.018;6.306;2023-03-19T09:56:24;103057.72;;;13.22;100.00
18900;BME280;9582;52.018;6.306;2023-03-19T09:58:52;103044.72;;;13.18;100.00
18900;BME280;9582;52.018;6.306;2023-03-19T10:01:24;103023.19;;;12.98;100.00
18900;BME280;9582;52.018;6.306;2023-03-19T10:04:03;103018.63;;;13.06;100.00
18900;BME280;9582;52.018;6.306;2023-03-19T10:06:33;103028.66;;;13.32;100.00
18900;BME280;9582;52.018;6.306;2023-03-19T10:09:12;103026.47;;;13.50;100.00
18900;BME280;9582;52.018;6.306;2023-03-19T10:11:53;102995.25;;;13.37;100.00
18900;BME280;9582;52.018;6.306;2023-03-19T10:14:39;102964.28;;;13.11;100.00
18900;BME280;9582;52.018;6.306;2023-03-19T10:17:12;102934.66;;;13.03;100.00
18900;BME280;9582;52.018;6.306;2023-03-19T10:19:45;102936.94;;;13.19;100.00
18900;BME280;9582;52.018;6.306;2023-03-19T10:22:15;102936.63;;;13.35;100.00
18900;BME280;9582;52.018;6.306;2023-03-19T10:24:45;102939.00;;;13.45;100.00
18900;BME280;9582;52.018;6.306;2023-03-19T10:27:17;102942.63;;;13.76;100.00
18900;BME280;9582;52.018;6.306;2023-03-19T10:29:43;102934.59;;;13.82;100.00
18900;BME280;9582;52.018;6.306;2023-03-19T10:32:16;102924.88;;;13.84;100.00
18900;BME280;9582;52.018;6.306;2023-03-19T10:34:45;102918.56;;;13.92;100.00
18900;BME280;9582;52.018;6.306;2023-03-19T10:37:14;102920.16;;;13.99;100.00
18900;BME280;9582;52.018;6.306;2023-03-19T10:39:43;102906.19;;;13.97;100.00
18900;BME280;9582;52.018;6.306;2023-03-19T10:42:25;102899.84;;;14.04;100.00
18900;BME280;9582;52.018;6.306;2023-03-19T10:45:00;102905.75;;;14.12;100.00
18900;BME280;9582;52.018;6.306;2023-03-19T10:47:37;102909.91;;;14.20;100.00
18900;BME280;9582;52.018;6.306;2023-03-19T10:50:04;102908.69;;;14.35;100.00
18900;BME280;9582;52.018;6.306;2023-03-19T10:52:32;102910.19;;;14.43;100.00
18900;BME280;9582;52.018;6.306;2023-03-19T10:55:02;102897.91;;;14.44;100.00
18900;BME280;9582;52.018;6.306;2023-03-19T10:57:32;102891.81;;;14.42;100.00
18900;BME280;9582;52.018;6.306;2023-03-19T11:00:02;102880.28;;;14.46;100.00
18900;BME280;9582;52.018;6.306;2023-03-19T11:02:29;102861.84;;;14.46;100.00
18900;BME280;9582;52.018;6.306;2023-03-19T11:05:06;102858.25;;;14.50;100.00
18900;BME280;9582;52.018;6.306;2023-03-19T11:07:35;102865.75;;;14.62;100.00
18900;BME280;9582;52.018;6.306;2023-03-19T11:10:02;102864.09;;;14.60;100.00
18900;BME280;9582;52.018;6.306;2023-03-19T11:12:33;102844.69;;;14.62;100.00
18900;BME280;9582;52.018;6.306;2023-03-19T11:15:02;102843.44;;;14.75;100.00
18900;BME280;9582;52.018;6.306;2023-03-19T11:17:36;102854.47;;;14.88;100.00
18900;BME280;9582;52.018;6.306;2023-03-19T11:20:18;102836.88;;;14.90;100.00
18900;BME280;9582;52.018;6.306;2023-03-19T11:22:47;102806.50;;;14.77;100.00
18900;BME280;9582;52.018;6.306;2023-03-19T11:25:16;102781.94;;;14.76;100.00
18900;BME280;9582;52.018;6.306;2023-03-19T11:27:57;102797.72;;;15.06;100.00
18900;BME280;9582;52.018;6.306;2023-03-19T11:30:27;102788.91;;;15.07;100.00
18900;BME280;9582;52.018;6.306;2023-03-19T11:33:09;102776.53;;;15.09;100.00
18900;BME280;9582;52.018;6.306;2023-03-19T11:35:40;102772.91;;;15.13;100.00
18900;BME280;9582;52.018;6.306;2023-03-19T11:38:15;102759.00;;;15.08;100.00
18900;BME280;9582;52.018;6.306;2023-03-19T11:40:44;102749.22;;;15.11;100.00
18900;BME280;9582;52.018;6.306;2023-03-19T11:43:26;102764.34;;;15.32;100.00
18900;BME280;9582;52.018;6.306;2023-03-19T11:46:01;102780.34;;;15.52;100.00
18900;BME280;9582;52.018;6.306;2023-03-19T11:48:43;102791.53;;;15.61;100.00
18900;BME280;9582;52.018;6.306;2023-03-19T11:51:18;102775.56;;;15.64;100.00
18900;BME280;9582;52.018;6.306;2023-03-19T11:53:58;102786.13;;;15.88;100.00
18900;BME280;9582;52.018;6.306;2023-03-19T11:56:31;102780.69;;;15.93;100.00
18900;BME280;9582;52.018;6.306;2023-03-19T11:59:12;102762.16;;;15.94;100.00
18900;BME280;9582;52.018;6.306;2023-03-19T12:01:57;102741.75;;;15.99;100.00
18900;BME280;9582;52.018;6.306;2023-03-19T12:05:02;102742.50;;;16.03;100.00
18900;BME280;9582;52.018;6.306;2023-03-19T12:07:37;102723.84;;;16.07;100.00
18900;BME280;9582;52.018;6.306;2023-03-19T12:10:25;102701.31;;;15.99;100.00
18900;BME280;9582;52.018;6.306;2023-03-19T12:13:06;102697.56;;;16.04;100.00
18900;BME280;9582;52.018;6.306;2023-03-19T12:15:44;102710.69;;;16.06;100.00
18900;BME280;9582;52.018;6.306;2023-03-19T12:18:19;102677.66;;;15.73;100.00
18900;BME280;9582;52.018;6.306;2023-03-19T12:20:55;102669.16;;;15.40;100.00
18900;BME280;9582;52.018;6.306;2023-03-19T12:23:34;102657.84;;;15.12;100.00
18900;BME280;9582;52.018;6.306;2023-03-19T12:26:05;102657.94;;;14.84;100.00
18900;BME280;9582;52.018;6.306;2023-03-19T12:28:34;102654.31;;;14.60;100.00
18900;BME280;9582;52.018;6.306;2023-03-19T12:31:26;102647.38;;;14.30;100.00
18900;BME280;9582;52.018;6.306;2023-03-19T12:34:03;102662.69;;;14.45;100.00
18900;BME280;9582;52.018;6.306;2023-03-19T12:36:37;102687.53;;;14.90;100.00
18900;BME280;9582;52.018;6.306;2023-03-19T12:39:10;102696.59;;;15.10;100.00
18900;BME280;9582;52.018;6.306;2023-03-19T12:41:40;102692.22;;;15.33;100.00
18900;BME280;9582;52.018;6.306;2023-03-19T12:44:10;102684.88;;;15.43;100.00
18900;BME280;9582;52.018;6.306;2023-03-19T12:46:42;102677.50;;;15.52;100.00
18900;BME280;9582;52.018;6.306;2023-03-19T12:49:14;102672.69;;;15.64;100.00
18900;BME280;9582;52.018;6.306;2023-03-19T12:51:44;102652.38;;;15.67;100.00
18900;BME280;9582;52.018;6.306;2023-03-19T12:54:15;102649.59;;;15.47;100.00
18900;BME280;9582;52.018;6.306;2023-03-19T12:56:48;102634.88;;;15.40;100.00
18900;BME280;9582;52.018;6.306;2023-03-19T12:59:24;102641.56;;;15.50;100.00
18900;BME280;9582;52.018;6.306;2023-03-19T13:02:00;102627.94;;;15.37;100.00
18900;BME280;9582;52.018;6.306;2023-03-19T13:04:31;102622.31;;;15.23;100.00
18900;BME280;9582;52.018;6.306;2023-03-19T13:07:02;102630.69;;;15.34;100.00
18900;BME280;9582;52.018;6.306;2023-03-19T13:09:33;102633.91;;;15.42;100.00
18900;BME280;9582;52.018;6.306;2023-03-19T13:12:03;102626.75;;;15.46;100.00